Palm Springs, California
Current Conditions -  °F | °C
As of 12:53 AM on Thursday 18 Dec 2014 (Local Time) from KPSP Reporting Station
Few Clouds Few Clouds  
Wind Chill: 54°   Ceiling: Unl
Heat Index: 54°   Visibility: 7mi
Dew Point: 49°   Wind: 0mph
Humidity: 83%   Direction: NA
Pressure: 30.11"   Gusts: NA
Location:  33.82°N, 116.51°W
Report Text: KPSP 180853Z 00000KT 7SM FEW060 12/09 A3011 RMK AO2 SLP197 T01220094 58004
Loading
Personal Weather Stations






























Interactive Weather Map New forecast layout! Learn more

10-Day Weather Forecast

Advertisements
Track Severe Weather on mobile